• Join FlightAware (Why Join?)
  • Login
  • US Flag 
12:52AM EDT


 

Airport Tracker/Info


-or-


 

Live Flight TrackerFlight Track Log ✈ AWI3778 ✈ 24-Apr-2013 ✈ KPHL - KBTV

Flight Track Log - Related Links

Times and Time Zones

All times are in EDT time to prevent confusion due to time zone crossing. See the AWI3778 flight status page for this flight to view local times or setup timezone preferences in your user account.

Time Position Orientation Groundspeed Altitude Reporting Facility
EDT Latitude Longitude Course Direction KTS MPH feet Rate Location/Type
11:45AM 39.8667 -75.2667 37° Northeast 161 185 700  Level Philadelphia TRACON
11:45AM 39.8500 -75.2894 226° Southwest 158 182 1,700 2,040 Climbing FAA TRACON SMA TRACON (SMA)
11:46AM 39.8369 -75.3014 215° Southwest 181 208 2,300 2,220 Climbing FAA TRACON SMA TRACON (SMA)
11:46AM 39.8239 -75.3136 216° Southwest 184 212 3,200 2,400 Climbing FAA TRACON SMA TRACON (SMA)
11:46AM 39.8072 -75.3275 213° Southwest 187 215 3,900 1,920 Climbing FAA TRACON SMA TRACON (SMA)
11:47AM 39.7931 -75.3353 203° Southwest 201 231 4,500 2,700 Climbing FAA TRACON SMA TRACON (SMA)
11:47AM 39.7706 -75.3236 158° South 235 270 5,700 2,700 Climbing FAA TRACON SMA TRACON (SMA)
11:47AM 39.7631 -75.3019 114° Southeast 231 266 6,300 1,620 Climbing FAA TRACON SMA TRACON (SMA)
11:48AM 39.7611 -75.2733 95° East 256 295 6,800 1,500 Climbing FAA TRACON SMA TRACON (SMA)
11:48AM 39.7636 -75.2353 85° East 285 328 7,300 1,320 Climbing FAA TRACON SMA TRACON (SMA)
11:48AM 39.7661 -75.2031 84° East 288 331 7,700 1,620 Climbing FAA TRACON SMA TRACON (SMA)
11:49AM 39.8038 -74.6796 37° Northeast  Level FlightAware Approximate
11:49AM 39.7686 -75.1642 85° East 293 337 8,400  Level FAA TRACON SMA TRACON (SMA)
11:49AM 39.7717 -75.0961 87° East 301 346 9,600 1,680 Climbing FAA TRACON SMA TRACON (SMA)
11:50AM 39.8936 -74.5898 37° Northeast  Level FlightAware Approximate
11:50AM 39.7736 -75.0542 87° East 309 356 10,200  Level FAA TRACON SMA TRACON (SMA)
11:50AM 39.7781 -74.9786 86° East 341 392 11,200 1,680 Climbing FAA TRACON SMA TRACON (SMA)
11:51AM 39.7811 -74.9303 85° East 349 402 11,800 1,200 Climbing FAA TRACON SMA TRACON (SMA)
11:51AM 39.7831 -74.8897 86° East 360 414 12,000 300 Climbing FAA TRACON SMA TRACON (SMA)
11:51AM 39.7858 -74.8494 85° East 371 427 12,000 120 Level FAA TRACON SMA TRACON (SMA)
11:52AM 39.7883 -74.8081 85° East 379 436 12,100 1,200 Climbing FAA TRACON SMA TRACON (SMA)
11:52AM 39.7917 -74.7531 85° East 383 441 12,800 1,800 Climbing FAA TRACON SMA TRACON (SMA)
11:52AM 39.8036 -74.7142 68° East 384 442 13,300 1,200 Climbing FAA TRACON SMA TRACON (SMA)
11:53AM 39.8236 -74.6856 48° Northeast 379 436 13,600 1,260 Climbing FAA TRACON SMA TRACON (SMA)
11:53AM 39.8586 -74.6519 36° Northeast 372 428 14,200 1,560 Climbing FAA TRACON SMA TRACON (SMA)
11:53AM 39.8850 -74.6267 36° Northeast 379 436 14,700 1,800 Climbing FAA TRACON SMA TRACON (SMA)
11:54AM 39.9172 -74.5950 37° Northeast 377 434 15,400 1,620 Climbing FAA TRACON SMA TRACON (SMA)
11:54AM 39.9408 -74.5731 35° Northeast 381 438 15,800 1,200 Climbing FAA TRACON SMA TRACON (SMA)
11:54AM 39.9683 -74.5447 38° Northeast 381 438 16,200 1,500 Climbing FAA TRACON SMA TRACON (SMA)
11:55AM 40.0025 -74.5114 37° Northeast 386 444 16,800 1,500 Climbing FAA TRACON SMA TRACON (SMA)
11:55AM 40.0267 -74.4878 37° Northeast 388 447 17,200 1,200 Climbing FAA TRACON SMA TRACON (SMA)
11:55AM 40.0564 -74.4589 37° Northeast 391 450 17,600 1,200 Climbing FAA TRACON SMA TRACON (SMA)
11:56AM 40.0900 -74.4261 37° Northeast 393 452 18,000 360 Climbing FAA TRACON SMA TRACON (SMA)
11:56AM 40.0900 -74.4261 270° West 393 452 18,000 1,260 Level FAA TRACON SMA TRACON (SMA)
11:57AM 40.1850 -74.3328 37° Northeast 390 449 19,600 1,920 Climbing New York Center
11:58AM 40.2708 -74.2503 36° Northeast 390 449 21,000 1,440 Climbing New York Center
11:59AM 40.3567 -74.1619 38° Northeast 395 455 22,500 1,380 Climbing New York Center
12:00PM 40.4561 -74.1069 23° Northeast 388 447 23,900 720 Climbing New York Center
12:02PM 40.6894 -73.9619 25° Northeast 379 436 25,000 300 Climbing Boston Center
12:03PM 40.7864 -73.8983 26° Northeast 379 436 25,000  Level Boston Center
12:04PM 40.8850 -73.8375 25° Northeast 379 436 25,000  Level Boston Center
12:05PM 40.9817 -73.7764 26° Northeast 385 443 25,000  Level Boston Center
12:06PM 41.0842 -73.7344 17° North 380 437 25,000  Level Boston Center
12:07PM 41.1886 -73.7172 North 375 432 25,000  Level Boston Center
12:08PM 41.2950 -73.6972 North 375 432 25,000  Level Boston Center
12:09PM 41.3994 -73.6797 North 375 432 25,000  Level Boston Center
12:11PM 41.5061 -73.6636 North  Level FlightAware Approximate
12:11PM 41.6144 -73.6478 North 375 432 25,000  Level Boston Center
12:12PM 41.7208 -73.6306 North 369 425 25,000  Level Boston Center
12:13PM 41.8211 -73.6156 North 369 425 25,000  Level Boston Center
12:14PM 41.9256 -73.5953 North 369 425 25,000  Level Boston Center
12:15PM 42.0300 -73.5806 North 369 425 25,000  Level Boston Center
12:16PM 42.1281 -73.5597 North 375 432 25,000  Level Boston Center
12:17PM 42.2347 -73.5392 North 375 432 25,000  Level Boston Center
12:18PM 42.3431 -73.5300 North 375 432 25,000  Level Boston Center
12:19PM 42.4494 -73.5122 North 369 425 25,000  Level Boston Center
12:20PM 42.5539 -73.4914 North 369 425 25,000  Level Boston Center
12:21PM 42.6583 -73.4733 North 369 425 25,000  Level Boston Center
12:22PM 42.7647 -73.4583 North 369 425 25,000  Level Boston Center
12:23PM 42.8483 -73.4425 North 374 430 25,000 -300 Level Boston Center
12:24PM 42.9611 -73.4189 North 369 425 24,500 -540 Descending Boston Center
12:25PM 43.0675 -73.4006 North 369 425 24,000 -300 Descending Boston Center
12:26PM 43.1844 -73.3797 North 374 430 24,000  Level Boston Center
12:27PM 43.2928 -73.3642 North 374 430 24,000  Level Boston Center
12:28PM 43.3992 -73.3486 North 386 444 24,000 -300 Level Boston Center
12:29PM 43.4975 -73.3017 19° North 381 438 23,400 -1,620 Descending Boston Center
12:30PM 43.5981 -73.2486 21° North 375 432 20,800 -2,700 Descending Boston Center
12:31PM 43.7003 -73.2011 19° North 386 444 18,100 -2,280 Descending Boston Center
12:32PM 43.8025 -73.1936 North 375 432 16,300 -2,100 Descending Boston Center
12:33PM 43.8983 -73.1892 North 356 410 14,000 -2,160 Descending Boston Center
12:34PM 43.9900 -73.1844 North 338 389 12,000 -1,860 Descending Boston Center
12:35PM 44.0775 -73.1886 358° North 320 368 10,300 -1,800 Descending Boston Center
12:36PM 44.1586 -73.2097 349° North 307 353 8,400 -1,920 Descending Boston Center
12:37PM 44.2378 -73.2311 349° North 290 334 6,500 -1,980 Descending Boston Center
12:38PM 44.3044 -73.2494 349° North 285 328 4,500 -1,200 Descending Boston Center
12:39PM 44.3750 -73.2678 349° North 263 303 4,100 -720 Descending Boston Center
12:40PM 44.4333 -73.2803 351° North 224 258 3,100 -1,020 Descending Boston Center